Time;durP1;ratioP1;P1;durP2;ratioP2;P2;SDS_P1;SDS_P2;PMS_P1;PMS_P2;Temp;Humidity;BMP_temperature;BMP_pressure;BME280_temperature;BME280_humidity;BME280_pressure;Samples;Min_cycle;Max_cycle;Signal;HPM_P1;HPM_P2
2023/10/30 00:02:24;;;;;;;0.45;0.45;;;12.50;99.90;;;;;;6230652;28;20046;-77
2023/10/30 00:05:26;;;;;;;0.40;0.25;;;12.50;99.90;;;;;;6227480;28;20421;-75
2023/10/30 00:08:28;;;;;;;0.95;0.40;;;12.50;99.90;;;;;;6223999;28;20050;-76
2023/10/30 00:11:30;;;;;;;7.18;1.05;;;12.50;99.90;;;;;;6237240;28;20050;-77
2023/10/30 00:14:34;;;;;;;2.28;0.60;;;12.50;99.90;;;;;;6234372;28;20148;-76
2023/10/30 00:17:36;;;;;;;3.22;0.38;;;12.40;99.90;;;;;;6229245;28;20052;-77
2023/10/30 00:20:38;;;;;;;0.10;0.10;;;12.40;99.90;;;;;;6228713;28;20517;-77
2023/10/30 00:23:40;;;;;;;3.58;0.57;;;12.40;99.90;;;;;;6221048;28;20454;-77
2023/10/30 00:26:42;;;;;;;0.40;0.40;;;12.40;99.90;;;;;;6220460;28;20054;-77
2023/10/30 00:29:45;;;;;;;0.60;0.60;;;12.40;99.90;;;;;;6216554;28;20127;-77
2023/10/30 00:32:47;;;;;;;0.40;0.25;;;12.40;99.90;;;;;;6249294;22;20060;-82
2023/10/30 00:35:49;;;;;;;2.55;0.63;;;12.40;99.90;;;;;;6249339;28;20041;-80
2023/10/30 00:38:50;;;;;;;0.50;0.50;;;12.40;99.90;;;;;;6250139;28;20044;-82
2023/10/30 00:41:52;;;;;;;1.00;0.60;;;12.40;99.90;;;;;;6249409;28;20500;-80
2023/10/30 00:44:55;;;;;;;0.50;0.50;;;12.40;99.90;;;;;;6250799;28;20121;-80
2023/10/30 00:47:58;;;;;;;1.75;1.10;;;12.30;99.90;;;;;;6250425;28;20049;-79
2023/10/30 00:50:59;;;;;;;0.80;0.60;;;12.30;99.90;;;;;;6250136;28;20049;-80
2023/10/30 00:54:01;;;;;;;0.57;0.32;;;12.20;99.90;;;;;;6249402;28;20033;-79
2023/10/30 00:57:03;;;;;;;2.75;0.35;;;12.20;99.90;;;;;;6250464;28;20047;-79
2023/10/30 01:00:07;;;;;;;0.30;0.30;;;12.20;99.90;;;;;;6251011;28;20051;-81
2023/10/30 01:03:09;;;;;;;1.48;1.00;;;12.20;99.90;;;;;;6247699;28;20048;-79
2023/10/30 01:06:11;;;;;;;0.50;0.45;;;12.20;99.90;;;;;;6250084;28;20037;-82
2023/10/30 01:09:13;;;;;;;1.48;0.25;;;12.20;99.90;;;;;;6249666;28;20045;-80
2023/10/30 01:12:14;;;;;;;2.50;0.88;;;12.20;99.90;;;;;;6249780;28;20128;-80
2023/10/30 01:15:18;;;;;;;1.17;0.70;;;12.20;99.90;;;;;;6249306;28;20057;-79
2023/10/30 01:18:20;;;;;;;0.20;0.20;;;12.10;99.90;;;;;;6248965;28;20116;-80
2023/10/30 01:21:21;;;;;;;0.20;0.20;;;12.10;99.90;;;;;;6248805;28;20422;-80
2023/10/30 01:24:23;;;;;;;5.60;0.50;;;12.10;99.90;;;;;;6249154;28;20045;-80
2023/10/30 01:27:25;;;;;;;3.25;0.90;;;12.10;99.90;;;;;;6250198;28;20729;-80
2023/10/30 01:30:28;;;;;;;0.30;0.30;;;12.10;99.90;;;;;;6231657;28;20056;-80
2023/10/30 01:33:30;;;;;;;0.30;0.25;;;12.20;99.90;;;;;;6247757;28;20057;-79
2023/10/30 01:36:31;;;;;;;0.30;0.30;;;12.20;99.90;;;;;;6248237;28;20051;-80
2023/10/30 01:39:33;;;;;;;2.60;0.70;;;12.20;99.90;;;;;;6249800;28;20109;-80
2023/10/30 01:42:35;;;;;;;1.45;1.35;;;12.20;99.90;;;;;;6249395;28;20045;-79
2023/10/30 01:45:38;;;;;;;0.63;0.63;;;12.20;99.90;;;;;;6249543;28;20053;-80
2023/10/30 01:48:41;;;;;;;0.57;0.55;;;12.20;99.90;;;;;;6248551;28;20063;-79
2023/10/30 01:51:43;;;;;;;0.50;0.50;;;12.20;99.90;;;;;;6250057;28;20042;-79
2023/10/30 01:54:46;;;;;;;0.68;0.60;;;12.30;99.90;;;;;;6253555;28;20418;-79
2023/10/30 01:57:49;;;;;;;0.30;0.22;;;12.30;99.90;;;;;;6255595;28;20037;-79
2023/10/30 02:00:53;;;;;;;0.30;0.30;;;12.30;99.90;;;;;;6255109;28;20056;-80
2023/10/30 02:03:55;;;;;;;0.30;0.30;;;12.30;99.90;;;;;;6256112;28;20057;-80
2023/10/30 02:06:57;;;;;;;0.25;0.22;;;12.30;99.90;;;;;;6254854;28;20115;-80
2023/10/30 02:09:58;;;;;;;0.20;0.20;;;12.20;99.90;;;;;;6255856;28;20149;-80
2023/10/30 02:13:00;;;;;;;1.88;0.80;;;12.20;99.90;;;;;;6255801;28;20056;-80
2023/10/30 02:16:04;;;;;;;0.28;0.28;;;12.20;99.90;;;;;;6254916;28;20034;-80
2023/10/30 02:19:10;;;;;;;0.50;0.50;;;12.20;99.90;;;;;;6248173;28;20041;-80
2023/10/30 02:22:11;;;;;;;0.43;0.20;;;12.20;99.90;;;;;;6261648;28;20061;-80
2023/10/30 02:25:13;;;;;;;1.42;0.43;;;12.10;99.90;;;;;;6256938;28;20055;-80
2023/10/30 02:28:17;;;;;;;5.38;0.40;;;12.10;99.90;;;;;;6256363;28;20060;-79
2023/10/30 02:31:19;;;;;;;1.25;0.68;;;12.10;99.90;;;;;;6254519;28;20049;-79
2023/10/30 02:34:21;;;;;;;0.75;0.68;;;12.10;99.90;;;;;;6253747;28;20053;-80
2023/10/30 02:37:22;;;;;;;0.60;0.40;;;12.00;99.90;;;;;;6254111;28;20051;-80
2023/10/30 02:40:24;;;;;;;0.20;0.20;;;12.00;99.90;;;;;;6253181;28;20049;-79
2023/10/30 02:43:27;;;;;;;0.45;0.43;;;12.00;99.90;;;;;;6253631;28;20049;-79
2023/10/30 02:46:29;;;;;;;2.63;0.45;;;11.90;99.90;;;;;;6253970;28;20052;-78
2023/10/30 02:49:31;;;;;;;1.35;0.57;;;11.90;99.90;;;;;;6253935;28;20056;-80
2023/10/30 02:52:32;;;;;;;0.45;0.45;;;11.90;99.90;;;;;;6253673;28;20045;-80
2023/10/30 02:55:34;;;;;;;1.17;0.95;;;11.90;99.90;;;;;;6251834;28;20048;-79
2023/10/30 02:58:37;;;;;;;0.30;0.30;;;11.80;99.90;;;;;;6250776;28;20041;-80
2023/10/30 03:01:39;;;;;;;4.40;0.47;;;11.80;99.90;;;;;;6252070;28;20469;-80
2023/10/30 03:04:40;;;;;;;0.52;0.30;;;11.80;99.90;;;;;;6252935;28;20049;-80
2023/10/30 03:07:42;;;;;;;0.30;0.30;;;11.80;99.90;;;;;;6253558;28;20057;-81
2023/10/30 03:10:44;;;;;;;5.82;0.60;;;11.80;99.90;;;;;;6246982;28;20052;-80
2023/10/30 03:13:47;;;;;;;1.48;1.38;;;11.70;99.90;;;;;;6252913;28;20405;-79
2023/10/30 03:16:49;;;;;;;1.08;0.40;;;11.70;99.90;;;;;;6251971;28;20402;-80
2023/10/30 03:19:50;;;;;;;0.65;0.45;;;11.70;99.90;;;;;;6251393;28;20049;-80
2023/10/30 03:22:53;;;;;;;0.90;0.90;;;11.70;99.90;;;;;;6252854;28;20048;-79
2023/10/30 03:25:55;;;;;;;0.55;0.43;;;11.70;99.90;;;;;;6251009;28;20332;-80
2023/10/30 03:28:58;;;;;;;4.32;0.50;;;11.70;99.90;;;;;;6251509;28;20045;-80
2023/10/30 03:32:00;;;;;;;5.97;0.50;;;11.60;99.90;;;;;;6251454;28;20049;-80
2023/10/30 03:35:01;;;;;;;2.42;0.57;;;11.60;99.90;;;;;;6250329;28;20509;-80
2023/10/30 03:38:03;;;;;;;0.98;0.40;;;11.60;99.90;;;;;;6249783;28;20344;-79
2023/10/30 03:41:05;;;;;;;0.70;0.30;;;11.60;99.90;;;;;;6250174;28;20067;-80
2023/10/30 03:44:08;;;;;;;2.10;0.57;;;11.60;99.90;;;;;;6250496;28;20426;-80
2023/10/30 03:47:10;;;;;;;0.55;0.55;;;11.60;99.90;;;;;;6249989;28;20052;-80
2023/10/30 03:50:12;;;;;;;0.85;0.75;;;11.60;99.90;;;;;;6251269;28;20502;-80
2023/10/30 03:53:14;;;;;;;0.28;0.28;;;11.60;99.90;;;;;;6250306;28;20053;-81
2023/10/30 03:56:16;;;;;;;0.43;0.43;;;11.60;99.90;;;;;;6250765;28;20051;-80
2023/10/30 03:59:20;;;;;;;1.88;0.57;;;11.60;99.90;;;;;;6250574;28;20044;-79
2023/10/30 04:02:22;;;;;;;0.52;0.28;;;11.60;99.90;;;;;;6250682;28;20064;-80
2023/10/30 04:05:23;;;;;;;2.83;0.47;;;11.60;99.90;;;;;;6251079;28;20049;-81
2023/10/30 04:08:25;;;;;;;1.55;0.70;;;11.50;99.90;;;;;;6236565;28;20056;-80
2023/10/30 04:11:27;;;;;;;0.40;0.38;;;11.60;99.90;;;;;;6251756;28;20041;-80
2023/10/30 04:14:31;;;;;;;2.38;0.40;;;11.50;99.90;;;;;;6251499;28;20046;-80
2023/10/30 04:17:33;;;;;;;0.43;0.25;;;11.50;99.90;;;;;;6239000;28;20053;-79
2023/10/30 04:20:34;;;;;;;0.40;0.40;;;11.50;99.90;;;;;;6250813;28;20136;-80
2023/10/30 04:23:38;;;;;;;0.30;0.30;;;11.50;99.90;;;;;;6251082;28;20049;-79
2023/10/30 04:26:39;;;;;;;0.35;0.35;;;11.50;99.90;;;;;;6250714;28;20060;-79
2023/10/30 04:29:43;;;;;;;0.98;0.20;;;11.50;99.90;;;;;;6250612;28;20049;-80
2023/10/30 04:32:44;;;;;;;2.70;0.55;;;11.60;99.90;;;;;;6250849;28;20148;-80
2023/10/30 04:35:46;;;;;;;0.32;0.32;;;11.60;99.90;;;;;;6250474;28;20053;-80
2023/10/30 04:38:49;;;;;;;0.47;0.30;;;11.60;99.90;;;;;;6250393;28;20045;-80
2023/10/30 04:41:53;;;;;;;0.20;0.20;;;11.60;99.90;;;;;;6249937;28;20502;-80
2023/10/30 04:44:56;;;;;;;0.77;0.63;;;11.60;99.90;;;;;;6250096;28;20689;-80
2023/10/30 04:47:58;;;;;;;3.22;0.80;;;11.60;99.90;;;;;;6251315;28;20041;-79
2023/10/30 04:51:00;;;;;;;1.95;1.13;;;11.60;99.90;;;;;;6249882;28;20056;-79
2023/10/30 04:54:02;;;;;;;6.75;0.70;;;11.60;99.90;;;;;;6250910;28;20041;-78
2023/10/30 04:57:05;;;;;;;0.10;0.10;;;11.60;99.90;;;;;;6249985;28;20045;-79
2023/10/30 05:00:09;;;;;;;0.22;0.20;;;11.60;99.90;;;;;;6250225;28;20052;-79
2023/10/30 05:03:11;;;;;;;0.70;0.55;;;11.60;99.90;;;;;;6249598;28;20037;-78
2023/10/30 05:06:13;;;;;;;0.32;0.32;;;11.60;99.90;;;;;;6249428;28;20052;-80
2023/10/30 05:09:14;;;;;;;0.30;0.30;;;11.60;99.90;;;;;;6244046;28;20053;-81
2023/10/30 05:12:16;;;;;;;2.83;0.43;;;11.60;99.90;;;;;;6251345;28;20052;-79
2023/10/30 05:15:21;;;;;;;0.20;0.20;;;11.60;99.90;;;;;;6250035;28;20044;-81
2023/10/30 05:18:24;;;;;;;0.40;0.40;;;11.60;99.90;;;;;;6250651;28;20045;-82
2023/10/30 05:21:26;;;;;;;0.20;0.20;;;11.60;99.90;;;;;;6250688;28;20045;-82
2023/10/30 05:24:27;;;;;;;2.95;0.60;;;11.60;99.90;;;;;;6249909;28;20533;-81
2023/10/30 05:27:29;;;;;;;2.83;0.95;;;11.60;99.90;;;;;;6236038;28;20506;-81
2023/10/30 05:30:33;;;;;;;1.02;0.50;;;11.60;99.90;;;;;;6258197;28;20426;-81
2023/10/30 05:33:35;;;;;;;0.08;0.08;;;11.60;99.90;;;;;;6257135;28;20052;-80
2023/10/30 05:36:37;;;;;;;0.95;0.28;;;11.60;99.90;;;;;;6257677;28;20046;-80
2023/10/30 05:39:38;;;;;;;0.75;0.75;;;11.60;99.90;;;;;;6261083;28;20064;-80
2023/10/30 05:42:40;;;;;;;2.30;0.38;;;11.60;99.90;;;;;;6257790;28;20052;-78
2023/10/30 05:45:43;;;;;;;0.20;0.20;;;11.70;99.90;;;;;;6256953;28;20052;-79
2023/10/30 05:48:45;;;;;;;0.10;0.10;;;11.70;99.90;;;;;;6254351;28;20546;-79
2023/10/30 05:51:47;;;;;;;0.88;0.30;;;11.60;99.90;;;;;;6249498;28;20049;-79
2023/10/30 05:54:48;;;;;;;0.93;0.52;;;11.70;99.90;;;;;;6248855;28;20052;-79
2023/10/30 05:57:50;;;;;;;0.55;0.55;;;11.60;99.90;;;;;;6249417;28;20053;-79
2023/10/30 06:00:53;;;;;;;0.22;0.22;;;11.60;99.90;;;;;;6248795;28;20050;-79
2023/10/30 06:03:56;;;;;;;1.10;0.80;;;11.60;99.90;;;;;;6249741;28;20042;-79
2023/10/30 06:06:57;;;;;;;1.05;0.30;;;11.60;99.90;;;;;;6249066;28;20045;-79
2023/10/30 06:09:59;;;;;;;1.15;0.73;;;11.70;99.90;;;;;;6249266;28;20042;-79
2023/10/30 06:13:01;;;;;;;3.05;0.55;;;11.70;99.90;;;;;;6247425;28;20042;-79
2023/10/30 06:16:04;;;;;;;0.70;0.55;;;11.70;99.90;;;;;;6245706;28;20053;-79
2023/10/30 06:19:06;;;;;;;2.75;0.88;;;11.80;99.90;;;;;;6248641;28;20041;-79
2023/10/30 06:22:08;;;;;;;1.27;1.17;;;11.80;99.90;;;;;;6249273;28;20046;-79
2023/10/30 06:25:09;;;;;;;0.68;0.40;;;11.80;99.90;;;;;;6249706;28;20045;-79
2023/10/30 06:28:12;;;;;;;0.45;0.40;;;11.70;99.90;;;;;;6251207;28;20049;-79
2023/10/30 06:31:16;;;;;;;0.60;0.60;;;11.70;99.90;;;;;;6250057;28;20045;-79
2023/10/30 06:34:17;;;;;;;1.08;0.80;;;11.80;99.90;;;;;;6263257;22;20515;-78
2023/10/30 06:37:19;;;;;;;0.70;0.50;;;11.80;99.90;;;;;;6266433;28;20416;-78
2023/10/30 06:40:21;;;;;;;4.78;0.50;;;11.90;99.90;;;;;;6260820;28;20053;-78
2023/10/30 06:43:22;;;;;;;0.43;0.43;;;11.90;99.90;;;;;;6272255;28;20067;-78
2023/10/30 06:46:25;;;;;;;1.27;0.80;;;12.00;99.90;;;;;;6274543;28;20045;-79
2023/10/30 06:49:27;;;;;;;1.05;0.70;;;12.10;99.90;;;;;;6273260;28;20429;-78
2023/10/30 06:52:29;;;;;;;1.75;0.30;;;12.10;99.90;;;;;;6273714;28;20060;-75
2023/10/30 06:55:32;;;;;;;0.40;0.40;;;12.20;99.90;;;;;;6272174;28;20045;-75
2023/10/30 06:58:33;;;;;;;0.55;0.50;;;12.30;99.90;;;;;;6271773;28;20045;-76
2023/10/30 07:01:42;;;;;;;0.75;0.60;;;12.40;99.90;;;;;;6272102;28;20509;-76
2023/10/30 07:04:44;;;;;;;0.40;0.40;;;12.50;99.90;;;;;;6272143;28;20059;-76
2023/10/30 07:07:45;;;;;;;1.83;0.50;;;12.50;99.90;;;;;;6272307;28;20048;-76
2023/10/30 07:10:47;;;;;;;1.25;1.00;;;12.60;99.90;;;;;;6271948;28;20059;-76
2023/10/30 07:13:49;;;;;;;0.70;0.55;;;12.80;99.90;;;;;;6271138;28;20498;-75
2023/10/30 07:16:52;;;;;;;0.75;0.60;;;13.00;99.90;;;;;;6265454;28;20421;-75
2023/10/30 07:19:54;;;;;;;0.70;0.70;;;13.10;99.90;;;;;;6266274;28;20440;-76
2023/10/30 07:22:56;;;;;;;0.38;0.35;;;13.00;99.90;;;;;;6271977;28;20049;-76
2023/10/30 07:25:57;;;;;;;0.55;0.43;;;13.00;99.90;;;;;;6271473;28;20040;-76
2023/10/30 07:28:59;;;;;;;0.93;0.43;;;13.00;99.90;;;;;;6260045;28;20058;-76
2023/10/30 07:32:02;;;;;;;3.05;0.30;;;13.00;99.90;;;;;;6246543;28;20045;-77
2023/10/30 07:35:06;;;;;;;1.55;0.98;;;13.00;99.90;;;;;;6246460;28;20042;-77
2023/10/30 07:38:08;;;;;;;0.95;0.85;;;13.10;99.90;;;;;;6267683;28;20044;-76
2023/10/30 07:41:11;;;;;;;0.22;0.22;;;13.20;99.90;;;;;;6271311;28;20040;-76
2023/10/30 07:44:12;;;;;;;0.45;0.40;;;13.50;99.90;;;;;;6271748;28;20048;-76
2023/10/30 07:47:15;;;;;;;0.22;0.22;;;13.70;99.90;;;;;;6279308;28;20033;-77
2023/10/30 07:50:18;;;;;;;1.20;1.00;;;13.90;99.90;;;;;;6262857;28;20059;-76
2023/10/30 07:53:20;;;;;;;4.03;0.80;;;14.00;99.90;;;;;;6268592;28;20083;-76
2023/10/30 07:56:22;;;;;;;1.38;0.85;;;14.20;99.90;;;;;;6272203;28;20044;-76
2023/10/30 07:59:23;;;;;;;2.78;0.88;;;14.30;99.90;;;;;;6247757;28;20159;-76
2023/10/30 08:02:26;;;;;;;1.13;1.02;;;14.40;99.90;;;;;;6246258;28;20052;-76
2023/10/30 08:05:30;;;;;;;0.77;0.77;;;14.30;99.90;;;;;;6245604;28;20056;-77
2023/10/30 08:08:32;;;;;;;1.10;0.80;;;14.40;99.90;;;;;;6245474;28;20588;-76
2023/10/30 08:11:34;;;;;;;0.90;0.73;;;14.40;99.90;;;;;;6245692;28;20050;-76
2023/10/30 08:14:35;;;;;;;1.55;0.70;;;14.50;99.90;;;;;;6245719;28;20052;-76
2023/10/30 08:17:38;;;;;;;2.10;1.08;;;14.60;99.90;;;;;;6245889;28;20056;-76
2023/10/30 08:20:40;;;;;;;2.53;1.10;;;14.90;99.90;;;;;;6234789;28;20049;-76
2023/10/30 08:23:42;;;;;;;1.40;1.15;;;15.20;99.90;;;;;;6245990;28;20045;-76
2023/10/30 08:26:43;;;;;;;1.08;0.80;;;15.50;99.90;;;;;;6244750;28;20046;-76
2023/10/30 08:29:45;;;;;;;0.80;0.80;;;15.70;99.90;;;;;;6254489;28;20045;-77
2023/10/30 08:32:48;;;;;;;2.60;1.40;;;16.00;99.90;;;;;;6260796;28;20045;-76
2023/10/30 08:35:50;;;;;;;3.50;1.05;;;16.40;99.90;;;;;;6245141;28;20195;-76
2023/10/30 08:38:51;;;;;;;1.83;1.17;;;16.70;99.90;;;;;;6244885;28;20053;-76
2023/10/30 08:41:53;;;;;;;1.60;1.13;;;16.80;99.90;;;;;;6244697;28;20049;-76
2023/10/30 08:44:55;;;;;;;1.33;0.95;;;17.10;99.90;;;;;;6244896;28;20053;-76
2023/10/30 08:47:58;;;;;;;1.38;1.27;;;17.30;99.90;;;;;;6245196;28;20045;-77
2023/10/30 08:51:03;;;;;;;3.47;1.63;;;17.50;99.90;;;;;;6244743;28;20049;-77
2023/10/30 08:54:05;;;;;;;2.17;1.60;;;17.40;99.90;;;;;;6244859;28;20051;-76
2023/10/30 08:57:07;;;;;;;3.72;1.67;;;17.40;99.90;;;;;;6254928;28;20129;-77
2023/10/30 09:00:10;;;;;;;1.35;1.25;;;17.50;99.90;;;;;;6248798;28;20700;-77
2023/10/30 09:03:13;;;;;;;0.98;0.80;;;17.80;99.90;;;;;;6244643;28;20045;-77
2023/10/30 09:06:15;;;;;;;1.13;0.95;;;18.10;99.90;;;;;;6244555;28;20037;-76
2023/10/30 09:09:17;;;;;;;1.13;0.73;;;18.20;99.90;;;;;;6244229;28;20052;-76
2023/10/30 09:12:18;;;;;;;0.70;0.70;;;18.20;99.90;;;;;;6254491;28;20045;-77
2023/10/30 09:15:20;;;;;;;2.20;1.98;;;18.20;99.90;;;;;;6266316;28;20053;-75
2023/10/30 09:18:23;;;;;;;2.13;1.00;;;18.10;99.90;;;;;;6255711;28;20072;-75
2023/10/30 09:21:25;;;;;;;1.08;0.98;;;18.00;99.90;;;;;;6247649;28;20056;-75
2023/10/30 09:24:27;;;;;;;1.33;1.10;;;18.00;99.90;;;;;;6234256;28;20050;-77
2023/10/30 09:27:29;;;;;;;0.73;0.73;;;18.10;99.90;;;;;;6251358;28;20056;-77
2023/10/30 09:30:30;;;;;;;1.30;1.20;;;18.20;99.90;;;;;;6256629;28;20056;-75
2023/10/30 09:33:33;;;;;;;2.55;1.63;;;18.20;99.90;;;;;;6231530;28;20096;-76
2023/10/30 09:36:35;;;;;;;1.20;0.98;;;18.40;99.90;;;;;;6255346;28;20052;-76
2023/10/30 09:39:37;;;;;;;1.50;1.40;;;18.50;99.90;;;;;;6254549;28;20421;-76
2023/10/30 09:42:49;;;;;;;2.85;1.85;;;18.70;99.90;;;;;;6250610;28;20446;-76
2023/10/30 09:45:54;;;;;;;2.03;1.73;;;18.90;99.90;;;;;;6250009;28;20053;-76
2023/10/30 09:49:00;;;;;;;4.95;1.70;;;19.10;99.90;;;;;;6252444;28;20052;-76
2023/10/30 09:52:05;;;;;;;1.92;1.63;;;19.50;99.90;;;;;;6263912;28;20445;-76
2023/10/30 09:55:11;;;;;;;3.95;1.73;;;19.70;99.90;;;;;;6269469;28;20068;-75
2023/10/30 09:58:13;;;;;;;1.20;1.10;;;19.40;99.90;;;;;;6249011;28;20038;-76
2023/10/30 10:01:14;;;;;;;1.27;1.17;;;19.00;99.90;;;;;;6261238;28;20486;-77
2023/10/30 10:04:17;;;;;;;1.30;1.08;;;18.60;99.90;;;;;;6257743;28;20049;-76
2023/10/30 10:07:21;;;;;;;1.65;1.05;;;18.20;99.90;;;;;;6272171;28;20041;-77
2023/10/30 10:10:24;;;;;;;1.52;1.33;;;18.00;99.90;;;;;;6259158;28;20067;-75
2023/10/30 10:13:26;;;;;;;1.55;0.95;;;17.90;99.90;;;;;;6248122;28;20054;-78
2023/10/30 10:16:30;;;;;;;5.15;1.23;;;18.00;99.90;;;;;;6246967;28;20050;-76
2023/10/30 10:19:34;;;;;;;1.80;1.33;;;18.10;99.90;;;;;;6264432;28;20049;-76
2023/10/30 10:22:35;;;;;;;2.75;1.08;;;18.10;99.90;;;;;;6248110;28;20056;-76
2023/10/30 10:25:54;;;;;;;1.30;1.20;;;18.10;99.90;;;;;;6248486;28;20041;-76
2023/10/30 10:28:56;;;;;;;1.95;0.77;;;18.00;99.90;;;;;;6248067;28;20048;-76
2023/10/30 10:31:58;;;;;;;1.33;1.23;;;17.90;99.90;;;;;;6248333;28;20056;-76
2023/10/30 10:35:02;;;;;;;2.10;1.40;;;18.00;99.90;;;;;;6258175;28;20533;-76
2023/10/30 10:38:09;;;;;;;7.50;1.50;;;18.00;99.90;;;;;;6272581;28;20171;-77
2023/10/30 10:41:11;;;;;;;2.85;1.75;;;17.90;99.90;;;;;;6256391;28;20041;-76
2023/10/30 10:44:13;;;;;;;1.60;1.50;;;17.90;99.90;;;;;;6252481;28;20046;-76
2023/10/30 10:47:15;;;;;;;6.97;1.13;;;18.00;99.90;;;;;;6248078;28;20040;-76
2023/10/30 10:50:18;;;;;;;4.32;1.27;;;18.00;99.90;;;;;;6251727;28;20041;-76
2023/10/30 10:53:27;;;;;;;2.05;1.67;;;17.90;99.90;;;;;;6251169;28;20049;-76
2023/10/30 10:56:30;;;;;;;1.95;1.00;;;17.70;99.90;;;;;;6262467;28;20064;-76
2023/10/30 10:59:37;;;;;;;2.15;1.70;;;17.60;99.90;;;;;;6249646;28;20181;-76
2023/10/30 11:02:40;;;;;;;4.80;1.88;;;17.50;99.90;;;;;;6262933;28;20045;-76
2023/10/30 11:05:45;;;;;;;2.63;1.67;;;17.30;99.90;;;;;;6256438;28;20053;-75
2023/10/30 11:08:54;;;;;;;1.75;1.42;;;17.20;99.90;;;;;;6238949;28;20429;-76
2023/10/30 11:12:08;;;;;;;3.67;1.15;;;17.10;99.90;;;;;;6254521;28;20422;-77
2023/10/30 11:15:15;;;;;;;2.53;1.52;;;17.10;99.90;;;;;;6247644;28;20099;-77
2023/10/30 11:18:20;;;;;;;2.63;1.83;;;17.00;99.90;;;;;;6254011;28;20051;-76
2023/10/30 11:21:27;;;;;;;2.38;1.80;;;17.00;99.90;;;;;;6262738;28;20386;-76
2023/10/30 11:24:37;;;;;;;3.05;2.50;;;17.00;99.90;;;;;;6248141;28;20057;-76
2023/10/30 11:27:39;;;;;;;2.10;1.60;;;16.90;99.90;;;;;;6262080;28;20410;-76
2023/10/30 11:30:44;;;;;;;1.60;1.48;;;16.80;99.90;;;;;;6276131;28;20045;-76
2023/10/30 11:33:46;;;;;;;1.73;1.52;;;16.70;99.90;;;;;;6271859;28;20041;-76
2023/10/30 11:36:52;;;;;;;3.67;2.38;;;16.70;99.90;;;;;;6255364;28;20049;-76
2023/10/30 11:39:55;;;;;;;6.85;2.42;;;16.60;99.90;;;;;;6239620;28;20060;-76
2023/10/30 11:42:57;;;;;;;1.92;1.60;;;16.60;99.90;;;;;;6246924;28;20041;-76
2023/10/30 11:46:06;;;;;;;3.13;1.73;;;16.60;99.90;;;;;;6247485;28;20053;-76
2023/10/30 11:49:08;;;;;;;2.35;1.65;;;16.60;99.90;;;;;;6270885;28;20048;-77
2023/10/30 11:52:13;;;;;;;3.17;1.92;;;16.60;99.90;;;;;;6268711;28;20057;-77
2023/10/30 11:55:18;;;;;;;2.92;1.90;;;16.70;99.90;;;;;;6246252;28;20044;-76
2023/10/30 11:58:21;;;;;;;2.42;1.65;;;16.70;99.90;;;;;;6258724;28;20052;-76
2023/10/30 12:01:23;;;;;;;1.92;1.58;;;16.70;99.90;;;;;;6270561;28;20055;-76
2023/10/30 12:04:26;;;;;;;1.52;1.35;;;16.60;99.90;;;;;;6249739;28;20049;-76
2023/10/30 12:07:29;;;;;;;2.50;1.58;;;16.60;99.90;;;;;;6258695;28;20359;-76
2023/10/30 12:10:31;;;;;;;2.10;1.45;;;16.60;99.90;;;;;;6271177;28;20052;-76
2023/10/30 12:13:33;;;;;;;1.90;1.25;;;16.60;99.90;;;;;;6270508;28;20049;-76
2023/10/30 12:16:35;;;;;;;3.33;1.35;;;16.60;99.90;;;;;;6270992;28;20068;-77
2023/10/30 12:19:37;;;;;;;3.70;1.40;;;16.60;99.90;;;;;;6248491;28;20402;-76
2023/10/30 12:22:42;;;;;;;7.30;1.70;;;16.60;99.90;;;;;;6245557;28;20071;-78
2023/10/30 12:25:44;;;;;;;2.30;1.67;;;16.60;99.90;;;;;;6271725;28;20198;-78
2023/10/30 12:28:46;;;;;;;1.55;1.45;;;16.60;99.90;;;;;;6272346;28;20048;-78
2023/10/30 12:31:51;;;;;;;2.08;1.58;;;16.60;99.90;;;;;;6285101;28;20072;-78
2023/10/30 12:34:53;;;;;;;3.70;1.23;;;16.60;99.90;;;;;;6243759;28;20422;-78
2023/10/30 12:37:56;;;;;;;3.53;1.92;;;16.60;99.90;;;;;;6248253;28;20660;-78
2023/10/30 12:41:00;;;;;;;1.63;1.52;;;16.60;99.90;;;;;;6246893;28;20051;-77
2023/10/30 12:44:02;;;;;;;2.33;1.42;;;16.60;99.90;;;;;;6246499;28;20049;-78
2023/10/30 12:47:04;;;;;;;1.92;1.73;;;16.60;99.90;;;;;;6244201;28;20041;-77
2023/10/30 12:50:07;;;;;;;1.50;1.40;;;16.60;99.90;;;;;;6235404;28;20053;-77
2023/10/30 12:53:10;;;;;;;1.73;1.60;;;16.60;99.90;;;;;;6223994;28;20041;-78
2023/10/30 12:56:12;;;;;;;1.83;1.48;;;16.60;99.90;;;;;;6248233;28;20390;-78
2023/10/30 12:59:15;;;;;;;1.27;1.15;;;16.50;99.90;;;;;;6245834;28;20081;-77
2023/10/30 13:02:16;;;;;;;1.23;1.13;;;16.50;99.90;;;;;;6237500;28;20041;-78
2023/10/30 13:05:18;;;;;;;1.38;1.27;;;16.40;99.90;;;;;;6249771;28;20333;-78
2023/10/30 13:08:21;;;;;;;1.60;1.30;;;16.30;99.90;;;;;;6247283;28;20072;-78
2023/10/30 13:11:23;;;;;;;1.95;1.45;;;16.30;99.90;;;;;;6245292;28;20046;-77
2023/10/30 13:14:25;;;;;;;1.63;1.13;;;16.20;99.90;;;;;;6257792;28;20048;-75
2023/10/30 13:17:27;;;;;;;2.28;1.27;;;16.20;99.90;;;;;;6261966;28;20477;-76
2023/10/30 13:20:29;;;;;;;2.88;1.70;;;16.10;99.90;;;;;;6253873;28;20052;-76
2023/10/30 13:23:32;;;;;;;2.08;1.40;;;16.10;99.90;;;;;;6257035;28;20056;-76
2023/10/30 13:26:33;;;;;;;1.45;1.23;;;16.00;99.90;;;;;;6253505;28;20049;-76
2023/10/30 13:29:35;;;;;;;1.48;1.15;;;16.00;99.90;;;;;;6253551;28;20056;-75
2023/10/30 13:32:37;;;;;;;3.92;1.70;;;16.00;99.90;;;;;;6259573;28;20053;-76
2023/10/30 13:35:39;;;;;;;1.98;1.65;;;15.90;99.90;;;;;;6254025;28;20057;-75
2023/10/30 13:38:42;;;;;;;3.58;1.75;;;16.00;99.90;;;;;;6251565;28;20091;-76
2023/10/30 13:41:46;;;;;;;1.60;1.20;;;16.00;99.90;;;;;;6250569;28;20475;-75
2023/10/30 13:44:47;;;;;;;1.73;1.30;;;16.00;99.90;;;;;;6255633;28;20138;-76
2023/10/30 13:47:49;;;;;;;2.38;1.30;;;16.00;99.90;;;;;;6246128;28;20448;-76
2023/10/30 13:50:51;;;;;;;1.67;1.35;;;16.00;99.90;;;;;;6266345;28;20132;-76
2023/10/30 13:53:55;;;;;;;1.02;0.85;;;16.00;99.90;;;;;;6266188;28;20049;-74
2023/10/30 13:56:57;;;;;;;1.30;1.05;;;16.10;99.90;;;;;;6250447;28;20046;-75
2023/10/30 13:59:59;;;;;;;1.38;0.85;;;16.10;99.90;;;;;;6259984;28;20059;-75
2023/10/30 14:03:01;;;;;;;1.30;1.20;;;16.10;99.90;;;;;;6257801;28;20050;-75
2023/10/30 14:06:02;;;;;;;4.70;2.40;;;16.00;99.90;;;;;;6252511;28;20509;-75
2023/10/30 14:09:06;;;;;;;1.20;1.10;;;16.00;99.90;;;;;;6258133;28;20045;-75
2023/10/30 14:12:08;;;;;;;3.45;0.95;;;16.00;99.90;;;;;;6257292;28;20063;-76
2023/10/30 14:15:10;;;;;;;1.42;1.23;;;15.90;99.90;;;;;;6251818;28;20053;-76
2023/10/30 14:18:11;;;;;;;1.58;1.48;;;15.90;99.90;;;;;;6264537;28;20041;-76
2023/10/30 14:21:15;;;;;;;9.90;5.70;;;15.90;99.90;;;;;;6259079;28;20037;-75
2023/10/30 14:24:18;;;;;;;14.30;3.67;;;16.00;99.90;;;;;;6255881;28;20396;-77
2023/10/30 14:27:20;;;;;;;8.50;4.93;;;16.10;99.90;;;;;;6256658;28;20526;-76
2023/10/30 14:30:21;;;;;;;5.97;3.47;;;16.10;99.90;;;;;;6249868;28;20060;-77
2023/10/30 14:33:23;;;;;;;2.15;1.67;;;16.10;99.90;;;;;;6260550;28;20046;-78
2023/10/30 14:36:25;;;;;;;3.05;2.00;;;16.20;99.90;;;;;;6251361;28;20067;-76
2023/10/30 14:39:28;;;;;;;2.33;1.60;;;16.20;99.90;;;;;;6263494;28;20358;-76
2023/10/30 14:42:29;;;;;;;2.20;1.77;;;16.20;99.90;;;;;;6256799;28;20068;-75
2023/10/30 14:45:31;;;;;;;2.83;1.83;;;16.20;99.90;;;;;;6261185;28;20045;-76
2023/10/30 14:48:33;;;;;;;3.45;1.85;;;16.10;99.90;;;;;;6268982;28;20045;-77
2023/10/30 14:51:36;;;;;;;1.85;1.58;;;16.10;99.90;;;;;;6264753;28;20080;-76
2023/10/30 14:54:39;;;;;;;7.60;1.85;;;16.00;99.90;;;;;;6260412;28;20052;-76
2023/10/30 14:57:41;;;;;;;2.75;2.40;;;16.00;99.90;;;;;;6262379;28;20043;-76
2023/10/30 15:00:42;;;;;;;2.20;2.00;;;16.00;99.90;;;;;;6251734;28;20051;-76
2023/10/30 15:03:44;;;;;;;4.30;3.50;;;15.90;99.90;;;;;;6250920;28;20075;-77
2023/10/30 15:06:46;;;;;;;2.42;2.22;;;15.90;99.90;;;;;;6255757;28;20056;-75
2023/10/30 15:09:49;;;;;;;2.33;2.13;;;15.90;99.90;;;;;;6257618;28;20048;-75
2023/10/30 15:12:51;;;;;;;1.98;1.58;;;15.70;99.90;;;;;;6254643;28;20045;-76
2023/10/30 15:15:52;;;;;;;3.97;2.10;;;15.60;99.90;;;;;;6270376;28;20049;-76
2023/10/30 15:18:54;;;;;;;4.22;2.40;;;15.50;99.90;;;;;;6262987;28;20044;-76
2023/10/30 15:21:56;;;;;;;23.55;11.43;;;15.40;99.90;;;;;;6248309;28;20046;-76
2023/10/30 15:24:59;;;;;;;13.27;6.20;;;15.30;99.90;;;;;;6255883;28;20045;-76
2023/10/30 15:28:01;;;;;;;3.08;2.78;;;15.30;99.90;;;;;;6264658;28;20498;-75
2023/10/30 15:31:03;;;;;;;2.40;2.17;;;15.30;99.90;;;;;;6265158;28;20078;-76
2023/10/30 15:34:04;;;;;;;4.88;1.98;;;15.20;99.90;;;;;;6240084;28;20498;-76
2023/10/30 15:37:06;;;;;;;6.35;1.83;;;15.10;99.90;;;;;;6250201;28;20037;-76
2023/10/30 15:40:10;;;;;;;3.80;1.63;;;15.10;99.90;;;;;;6250315;28;20041;-76
2023/10/30 15:43:12;;;;;;;2.97;1.80;;;15.10;99.90;;;;;;6256314;28;20059;-75
2023/10/30 15:46:14;;;;;;;2.08;1.38;;;15.00;99.90;;;;;;6252903;28;20423;-75
2023/10/30 15:49:15;;;;;;;1.48;1.17;;;15.00;99.90;;;;;;6246100;28;20045;-77